Time;durP1;ratioP1;P1;durP2;ratioP2;P2;SDS_P1;SDS_P2;PMS_P1;PMS_P2;Temp;Humidity;BMP_temperature;BMP_pressure;BME280_temperature;BME280_humidity;BME280_pressure;Samples;Min_cycle;Max_cycle;Signal;HPM_P1;HPM_P2
2023/04/25 00:02:10;;;;;;;33.50;28.60;;;;;;;10.82;76.82;96010.66;108825;1252;95661;-73
2023/04/25 00:04:37;;;;;;;33.50;27.10;;;;;;;10.83;76.91;96007.23;108527;1254;95763;-73
2023/04/25 00:07:04;;;;;;;31.70;25.50;;;;;;;10.82;76.93;96007.11;108743;1253;95820;-74
2023/04/25 00:09:32;;;;;;;28.50;24.80;;;;;;;10.81;76.86;96007.10;108408;1253;96118;-73
2023/04/25 00:11:58;;;;;;;28.10;22.30;;;;;;;10.80;76.89;96007.84;108776;1252;103238;-73
2023/04/25 00:14:25;;;;;;;26.90;22.10;;;;;;;10.80;76.88;96007.39;108753;1253;96090;-73
2023/04/25 00:16:52;;;;;;;28.10;21.60;;;;;;;10.78;76.78;96005.11;108280;1254;96097;-74
2023/04/25 00:19:18;;;;;;;29.00;23.10;;;;;;;10.79;76.98;96012.52;108729;1253;95864;-73
2023/04/25 00:21:46;;;;;;;30.50;25.60;;;;;;;10.76;76.93;96011.42;108835;1253;95660;-73
2023/04/25 00:24:13;;;;;;;12.80;9.50;;;;;;;10.74;76.79;96012.77;108782;1252;101254;-75
2023/04/25 00:26:40;;;;;;;8.30;6.80;;;;;;;10.67;76.21;96012.21;108747;1253;95719;-73
2023/04/25 00:29:06;;;;;;;8.80;7.20;;;;;;;10.58;76.25;96012.13;108733;1252;96011;-72
2023/04/25 00:31:33;;;;;;;5.40;4.80;;;;;;;10.53;76.10;96014.58;108710;1253;96402;-73
2023/04/25 00:34:00;;;;;;;6.50;4.00;;;;;;;10.45;75.82;96011.80;108747;1253;95678;-73
2023/04/25 00:36:27;;;;;;;3.60;3.30;;;;;;;10.34;75.87;96019.77;108769;1253;95927;-75
2023/04/25 00:38:54;;;;;;;3.30;3.00;;;;;;;10.26;76.04;96016.28;108774;1253;95621;-73
2023/04/25 00:41:21;;;;;;;3.00;2.70;;;;;;;10.25;76.14;96018.91;108750;1253;95617;-73
2023/04/25 00:43:49;;;;;;;3.60;2.90;;;;;;;10.24;76.12;96017.70;108809;1252;95676;-72
2023/04/25 00:46:16;;;;;;;4.00;3.10;;;;;;;10.20;76.16;96017.63;108461;1252;96023;-73
2023/04/25 00:48:42;;;;;;;3.00;2.70;;;;;;;10.18;76.15;96022.96;108593;1252;96032;-73
2023/04/25 00:51:14;;;;;;;3.10;2.50;;;;;;;10.15;76.28;96023.45;108737;1253;95828;-73
2023/04/25 00:53:41;;;;;;;2.90;2.50;;;;;;;10.14;76.42;96025.90;108795;1252;96506;-74
2023/04/25 00:56:08;;;;;;;3.90;2.90;;;;;;;10.12;76.44;96022.90;108742;1253;95763;-73
2023/04/25 00:58:35;;;;;;;4.70;3.00;;;;;;;10.13;76.54;96019.96;108830;1253;95666;-73
2023/04/25 01:01:02;;;;;;;3.10;2.80;;;;;;;10.12;76.56;96018.55;108756;1252;95644;-73
2023/04/25 01:03:35;;;;;;;4.40;2.90;;;;;;;10.09;76.60;96020.96;108732;1252;95566;-73
2023/04/25 01:06:02;;;;;;;;;;;;;;;10.08;76.48;96020.19;108787;1252;95582;-73
2023/04/25 01:08:30;;;;;;;3.70;2.90;;;;;;;10.08;76.58;96022.44;108771;1253;95618;-73
2023/04/25 01:10:56;;;;;;;3.30;3.00;;;;;;;10.07;76.59;96021.02;108801;1253;100361;-73
2023/04/25 01:13:23;;;;;;;3.90;3.60;;;;;;;10.03;76.43;96020.08;108794;1252;95614;-73
2023/04/25 01:15:50;;;;;;;4.90;3.60;;;;;;;9.94;76.58;96019.73;108751;1253;95930;-75
2023/04/25 01:18:17;;;;;;;4.70;3.30;;;;;;;9.87;76.76;96018.77;108776;1252;95629;-73
2023/04/25 01:20:44;;;;;;;4.30;4.00;;;;;;;9.86;76.93;96018.26;108861;1254;95851;-73
2023/04/25 01:23:11;;;;;;;5.10;4.00;;;;;;;9.88;76.96;96018.63;108780;1252;99961;-73
2023/04/25 01:25:38;;;;;;;4.20;3.70;;;;;;;9.89;77.08;96019.27;108771;1253;95711;-73
2023/04/25 01:28:06;;;;;;;4.70;4.00;;;;;;;9.89;77.12;96020.31;108807;1253;95661;-73
2023/04/25 01:30:33;;;;;;;5.60;4.50;;;;;;;9.88;77.02;96020.13;108754;1253;95608;-73
2023/04/25 01:33:01;;;;;;;4.50;4.10;;;;;;;9.88;77.04;96024.11;108810;1253;95592;-73
2023/04/25 01:35:27;;;;;;;4.60;4.10;;;;;;;9.86;77.22;96021.98;108750;1253;95640;-73
2023/04/25 01:37:54;;;;;;;5.70;4.40;;;;;;;9.86;77.27;96023.60;108790;1253;95700;-74
2023/04/25 01:40:21;;;;;;;6.00;4.70;;;;;;;9.82;77.21;96022.48;108480;1253;96581;-74
2023/04/25 01:42:48;;;;;;;5.70;4.50;;;;;;;9.81;77.17;96023.16;108794;1254;96045;-73
2023/04/25 01:45:15;;;;;;;6.30;4.70;;;;;;;9.80;77.14;96019.31;108869;1252;95854;-75
2023/04/25 01:47:43;;;;;;;5.40;4.70;;;;;;;9.79;77.25;96020.14;108836;1252;95875;-73
2023/04/25 01:50:10;;;;;;;5.70;4.90;;;;;;;9.76;77.16;96019.30;108771;1253;95993;-73
2023/04/25 01:52:37;;;;;;;7.00;4.90;;;;;;;9.70;77.13;96020.52;108834;1253;103593;-74
2023/04/25 01:55:06;;;;;;;6.50;5.80;;;;;;;9.64;77.25;96022.36;108366;1253;96422;-73
2023/04/25 01:57:33;;;;;;;5.20;4.80;;;;;;;9.62;77.37;96018.71;108415;1253;99917;-73
2023/04/25 02:00:03;;;;;;;5.90;5.40;;;;;;;9.62;77.64;96020.21;108479;1252;95690;-73
2023/04/25 02:02:30;;;;;;;5.50;4.80;;;;;;;9.61;77.52;96021.63;108819;1252;96151;-72
2023/04/25 02:04:56;;;;;;;5.70;5.10;;;;;;;9.59;77.59;96027.26;108817;1253;95860;-73
2023/04/25 02:07:23;;;;;;;6.00;5.40;;;;;;;9.57;77.62;96026.02;108850;1252;95571;-76
2023/04/25 02:09:50;;;;;;;5.60;5.00;;;;;;;9.57;77.73;96026.94;108346;1252;95764;-73
2023/04/25 02:12:17;;;;;;;7.40;5.70;;;;;;;9.57;77.77;96027.59;108821;1254;95624;-73
2023/04/25 02:14:43;;;;;;;7.60;5.30;;;;;;;9.56;77.65;96032.67;108791;1253;103590;-73
2023/04/25 02:17:10;;;;;;;6.60;6.00;;;;;;;9.54;77.58;96029.09;108868;1253;96071;-73
2023/04/25 02:19:36;;;;;;;7.30;6.10;;;;;;;9.55;77.54;96032.60;108417;1253;95594;-75
2023/04/25 02:22:03;;;;;;;6.00;5.40;;;;;;;9.56;77.63;96031.06;108397;1260;95587;-74
2023/04/25 02:24:30;;;;;;;6.40;5.60;;;;;;;9.56;77.68;96031.70;108554;1253;95596;-75
2023/04/25 02:26:56;;;;;;;5.80;5.20;;;;;;;9.57;77.66;96033.89;108872;1252;109888;-73
2023/04/25 02:29:23;;;;;;;6.40;5.50;;;;;;;9.58;77.68;96031.59;108716;1253;95708;-73
2023/04/25 02:31:50;;;;;;;7.70;5.80;;;;;;;9.59;77.71;96035.92;108767;1252;95636;-73
2023/04/25 02:34:16;;;;;;;6.70;6.00;;;;;;;9.56;77.67;96035.11;108821;1252;96118;-72
2023/04/25 02:36:43;;;;;;;6.10;5.30;;;;;;;9.56;77.71;96035.69;108874;1253;95929;-73
2023/04/25 02:39:10;;;;;;;5.00;4.50;;;;;;;9.54;77.63;96033.23;108779;1252;99970;-73
2023/04/25 02:41:37;;;;;;;6.30;5.40;;;;;;;9.49;77.41;96030.12;108797;1252;95665;-72
2023/04/25 02:44:04;;;;;;;6.70;5.20;;;;;;;9.46;77.51;96032.33;108837;1252;95576;-74
2023/04/25 02:46:30;;;;;;;7.60;5.40;;;;;;;9.37;77.66;96032.93;108544;1253;95994;-72
2023/04/25 02:48:57;;;;;;;10.80;5.70;;;;;;;9.34;77.74;96034.85;108408;1253;96122;-73
2023/04/25 02:51:23;;;;;;;6.60;6.00;;;;;;;9.30;77.81;96033.92;108765;1253;95679;-74
2023/04/25 02:53:50;;;;;;;7.10;5.70;;;;;;;9.28;77.91;96034.36;108387;1254;96038;-73
2023/04/25 02:56:17;;;;;;;6.70;6.10;;;;;;;9.28;78.03;96033.40;108833;1253;95657;-72
2023/04/25 02:58:44;;;;;;;8.30;6.50;;;;;;;9.29;78.08;96030.90;108804;1252;95844;-73
2023/04/25 03:01:11;;;;;;;7.90;6.70;;;;;;;9.28;78.21;96028.92;108772;1252;95871;-75
2023/04/25 03:03:38;;;;;;;8.00;7.00;;;;;;;9.29;78.09;96029.64;108820;1253;95857;-74
2023/04/25 03:06:05;;;;;;;9.40;7.90;;;;;;;9.29;78.23;96028.30;108555;1253;102285;-73
2023/04/25 03:08:32;;;;;;;9.50;7.90;;;;;;;9.30;78.35;96031.81;108793;1253;95898;-75
2023/04/25 03:10:59;;;;;;;8.30;7.50;;;;;;;9.31;78.32;96032.48;108692;1253;96060;-73
2023/04/25 03:13:27;;;;;;;7.90;7.00;;;;;;;9.33;78.39;96033.91;108747;1253;95916;-72
2023/04/25 03:15:53;;;;;;;9.50;7.90;;;;;;;9.33;78.38;96034.08;108832;1253;96018;-73
2023/04/25 03:18:20;;;;;;;10.90;8.40;;;;;;;9.36;78.14;96031.91;108803;1252;95945;-74
2023/04/25 03:20:47;;;;;;;10.00;8.40;;;;;;;9.41;78.27;96036.31;108438;1252;95694;-73
2023/04/25 03:23:14;;;;;;;9.40;8.10;;;;;;;9.44;78.29;96037.89;108878;1253;95624;-73
2023/04/25 03:25:41;;;;;;;7.60;6.80;;;;;;;9.47;78.24;96041.23;108759;1253;96029;-73
2023/04/25 03:28:08;;;;;;;8.10;7.40;;;;;;;9.48;78.25;96043.02;108820;1253;95660;-73
2023/04/25 03:30:34;;;;;;;8.80;7.60;;;;;;;9.47;78.22;96044.46;108485;1253;95708;-73
2023/04/25 03:33:01;;;;;;;9.90;8.00;;;;;;;9.40;78.32;96042.98;108757;1253;95716;-72
2023/04/25 03:35:28;;;;;;;9.30;7.40;;;;;;;9.39;78.35;96045.70;108889;1253;96531;-73
2023/04/25 03:37:54;;;;;;;8.50;7.60;;;;;;;9.40;78.44;96045.06;108785;1254;103671;-72
2023/04/25 03:40:21;;;;;;;8.00;7.10;;;;;;;9.41;78.36;96046.48;108500;1253;96027;-74
2023/04/25 03:42:48;;;;;;;9.40;7.80;;;;;;;9.43;78.41;96048.17;108487;1254;95909;-73
2023/04/25 03:45:14;;;;;;;8.40;7.40;;;;;;;9.45;78.42;96054.44;108821;1254;95830;-72
2023/04/25 03:47:41;;;;;;;7.00;6.30;;;;;;;9.46;78.42;96054.39;108421;1253;95655;-72
2023/04/25 03:50:08;;;;;;;7.30;6.30;;;;;;;9.44;78.41;96054.83;108831;1253;109934;-74
2023/04/25 03:52:35;;;;;;;6.80;6.20;;;;;;;9.41;78.33;96055.60;108759;1254;96512;-73
2023/04/25 03:55:01;;;;;;;6.80;6.10;;;;;;;9.38;78.23;96058.45;108796;1254;95595;-73
2023/04/25 03:57:28;;;;;;;6.60;5.40;;;;;;;9.32;78.40;96058.04;108817;1253;96528;-74
2023/04/25 03:59:55;;;;;;;7.10;5.40;;;;;;;9.31;78.10;96067.55;108841;1254;95695;-73
2023/04/25 04:02:21;;;;;;;9.00;5.90;;;;;;;9.27;78.00;96069.34;108852;1252;95792;-74
2023/04/25 04:04:48;;;;;;;8.50;6.10;;;;;;;9.24;77.91;96077.42;108427;1253;95631;-74
2023/04/25 04:07:15;;;;;;;7.10;6.40;;;;;;;9.22;78.07;96077.73;108804;1253;95824;-74
2023/04/25 04:09:42;;;;;;;19.50;17.50;;;;;;;9.20;77.95;96079.34;108838;1254;95885;-74
2023/04/25 04:12:08;;;;;;;42.50;36.00;;;;;;;9.20;77.86;96084.24;108818;1255;95938;-73
2023/04/25 04:14:35;;;;;;;41.40;33.30;;;;;;;9.17;77.73;96089.64;108486;1254;96905;-74
2023/04/25 04:17:02;;;;;;;70.80;57.10;;;;;;;9.09;77.50;96090.45;108797;1254;97045;-73
2023/04/25 04:19:29;;;;;;;44.80;37.50;;;;;;;9.03;77.53;96094.45;108803;1253;95601;-76
2023/04/25 04:21:55;;;;;;;45.00;33.30;;;;;;;9.00;77.63;96094.08;108485;1253;95927;-75
2023/04/25 04:24:22;;;;;;;63.60;46.80;;;;;;;8.98;77.65;96096.50;108738;1253;95985;-74
2023/04/25 04:26:49;;;;;;;76.30;54.00;;;;;;;8.98;77.69;96098.83;108865;1254;95839;-75
2023/04/25 04:29:20;;;;;;;63.00;42.80;;;;;;;8.98;77.58;96101.73;108381;1253;103593;-73
2023/04/25 04:31:52;;;;;;;137.70;76.70;;;;;;;8.95;77.50;96106.83;108839;1253;101746;-73
2023/04/25 04:34:19;;;;;;;214.30;112.00;;;;;;;8.94;77.45;96109.70;108842;1253;99009;-73
2023/04/25 04:36:46;;;;;;;65.50;38.00;;;;;;;8.93;77.41;96111.58;108818;1253;95557;-75
2023/04/25 04:39:14;;;;;;;30.50;20.80;;;;;;;8.87;77.29;96111.31;108817;1253;95649;-73
2023/04/25 04:41:41;;;;;;;31.80;25.50;;;;;;;8.84;77.40;96111.35;108834;1254;95869;-73
2023/04/25 04:44:08;;;;;;;19.70;17.10;;;;;;;8.81;77.39;96118.12;108804;1253;95844;-74
2023/04/25 04:46:37;;;;;;;14.80;13.20;;;;;;;8.78;77.39;96119.38;108828;1252;95856;-73
2023/04/25 04:49:06;;;;;;;15.80;14.20;;;;;;;8.74;77.38;96122.08;108799;1256;95931;-73
2023/04/25 04:51:33;;;;;;;18.00;15.50;;;;;;;8.70;77.44;96122.98;108426;1253;96056;-75
2023/04/25 04:54:02;;;;;;;18.90;16.80;;;;;;;8.68;77.48;96122.89;108762;1256;95848;-72
2023/04/25 04:56:32;;;;;;;15.50;12.10;;;;;;;8.69;77.60;96125.81;108788;1256;101397;-74
2023/04/25 04:58:59;;;;;;;12.90;10.50;;;;;;;8.69;77.68;96119.31;108824;1254;99789;-73
2023/04/25 05:01:26;;;;;;;11.40;9.30;;;;;;;8.68;77.63;96116.98;108778;1252;95568;-73
2023/04/25 05:03:53;;;;;;;15.50;13.00;;;;;;;8.66;77.72;96122.48;108525;1252;95875;-73
2023/04/25 05:06:20;;;;;;;16.70;14.20;;;;;;;8.68;77.79;96125.58;108448;1252;95721;-73
2023/04/25 05:08:46;;;;;;;21.10;17.00;;;;;;;8.66;77.72;96130.66;108498;1253;96547;-74
2023/04/25 05:11:13;;;;;;;13.10;11.10;;;;;;;8.67;77.73;96124.31;108480;1254;95713;-73
2023/04/25 05:13:42;;;;;;;11.10;8.70;;;;;;;8.70;77.71;96121.27;108814;1253;95567;-76
2023/04/25 05:16:09;;;;;;;9.70;8.60;;;;;;;8.72;77.62;96123.30;108855;1254;95908;-73
2023/04/25 05:18:36;;;;;;;10.60;9.60;;;;;;;8.73;77.67;96127.91;108838;1253;95749;-75
2023/04/25 05:21:02;;;;;;;9.00;7.80;;;;;;;8.74;77.65;96128.52;108859;1254;96080;-72
2023/04/25 05:23:30;;;;;;;9.40;6.20;;;;;;;8.76;77.66;96126.81;108777;1253;95671;-73
2023/04/25 05:25:57;;;;;;;7.60;5.70;;;;;;;8.76;77.70;96127.52;108793;1257;96015;-74
2023/04/25 05:28:24;;;;;;;6.50;5.30;;;;;;;8.73;77.47;96132.15;108843;1253;95603;-73
2023/04/25 05:30:51;;;;;;;8.80;6.00;;;;;;;8.72;77.43;96135.30;108802;1256;95693;-73
2023/04/25 05:33:17;;;;;;;7.80;6.00;;;;;;;8.74;77.37;96127.13;108789;1253;95998;-75
2023/04/25 05:35:45;;;;;;;7.10;6.20;;;;;;;8.76;77.34;96131.93;108741;1254;95547;-73
2023/04/25 05:38:12;;;;;;;11.00;6.40;;;;;;;8.75;77.31;96137.45;108745;1253;95628;-72
2023/04/25 05:40:39;;;;;;;9.60;7.70;;;;;;;8.76;77.24;96137.03;108857;1253;95620;-73
2023/04/25 05:43:05;;;;;;;16.70;11.80;;;;;;;8.77;77.25;96138.67;108720;1252;96484;-72
2023/04/25 05:45:32;;;;;;;30.60;18.10;;;;;;;8.77;77.48;96140.48;108448;1254;95891;-73
2023/04/25 05:47:59;;;;;;;36.50;21.80;;;;;;;8.76;77.54;96142.41;108829;1254;95580;-75
2023/04/25 05:50:26;;;;;;;90.50;46.50;;;;;;;8.78;77.56;96144.99;108844;1254;95774;-72
2023/04/25 05:52:52;;;;;;;75.00;43.30;;;;;;;8.78;77.50;96145.49;108215;1253;96684;-72
2023/04/25 05:55:19;;;;;;;44.50;29.10;;;;;;;8.76;77.43;96146.98;108835;1256;95598;-72
2023/04/25 05:57:46;;;;;;;21.60;17.60;;;;;;;8.74;77.43;96147.85;108870;1252;95559;-72
2023/04/25 06:00:15;;;;;;;11.90;10.60;;;;;;;8.75;77.47;96150.13;108835;1256;103513;-73
2023/04/25 06:02:42;;;;;;;14.60;10.90;;;;;;;8.77;77.26;96151.38;108458;1252;101336;-74
2023/04/25 06:05:09;;;;;;;9.80;8.60;;;;;;;8.79;77.22;96157.52;108799;1253;95839;-73
2023/04/25 06:07:36;;;;;;;14.20;9.70;;;;;;;8.78;77.11;96156.83;108796;1256;95608;-73
2023/04/25 06:10:06;;;;;;;11.80;9.00;;;;;;;8.79;77.36;96160.46;108856;1253;95960;-75
2023/04/25 06:12:33;;;;;;;10.90;8.80;;;;;;;8.79;77.13;96159.13;108807;1254;103525;-73
2023/04/25 06:15:01;;;;;;;11.00;8.80;;;;;;;8.78;77.01;96162.66;108623;1252;101371;-75
2023/04/25 06:17:28;;;;;;;10.10;9.10;;;;;;;8.77;76.90;96167.03;108801;1254;99893;-73
2023/04/25 06:19:54;;;;;;;10.70;9.50;;;;;;;8.78;76.85;96172.77;108429;1253;95846;-73
2023/04/25 06:22:21;;;;;;;11.90;9.40;;;;;;;8.81;76.84;96175.16;108830;1254;95602;-73
2023/04/25 06:24:48;;;;;;;10.00;9.10;;;;;;;8.84;76.71;96179.15;108748;1253;95684;-72
2023/04/25 06:27:14;;;;;;;10.20;8.80;;;;;;;8.83;76.85;96179.13;108797;1254;96043;-72
2023/04/25 06:29:41;;;;;;;8.70;7.60;;;;;;;8.83;76.71;96179.60;108752;1254;95773;-73
2023/04/25 06:32:08;;;;;;;9.00;8.10;;;;;;;8.77;76.61;96184.99;108824;1254;96414;-73
2023/04/25 06:34:35;;;;;;;8.60;7.50;;;;;;;8.77;76.77;96180.48;108857;1254;95798;-73
2023/04/25 06:37:02;;;;;;;9.30;8.30;;;;;;;8.77;76.76;96174.77;108339;1254;95697;-73
2023/04/25 06:39:29;;;;;;;8.20;7.10;;;;;;;8.81;76.77;96176.83;108771;1254;95597;-73
2023/04/25 06:41:56;;;;;;;9.10;7.10;;;;;;;8.82;76.71;96178.90;108817;1254;95626;-72
2023/04/25 06:44:23;;;;;;;8.20;7.40;;;;;;;8.82;76.71;96180.23;108443;1254;95693;-73
2023/04/25 06:46:50;;;;;;;7.10;6.40;;;;;;;8.83;76.48;96182.98;108803;1254;101511;-74
2023/04/25 06:49:17;;;;;;;7.10;6.40;;;;;;;8.84;76.42;96182.80;108801;1253;96095;-73
2023/04/25 06:51:44;;;;;;;7.30;6.10;;;;;;;8.85;76.27;96184.24;108819;1256;95553;-73
2023/04/25 06:54:10;;;;;;;7.50;6.70;;;;;;;8.87;76.24;96184.01;108475;1253;96013;-73
2023/04/25 06:56:37;;;;;;;8.70;7.70;;;;;;;8.89;76.16;96188.98;108923;1253;96120;-72
2023/04/25 06:59:04;;;;;;;6.90;6.20;;;;;;;8.90;76.01;96188.31;108819;1253;100081;-75
2023/04/25 07:01:31;;;;;;;8.70;6.20;;;;;;;8.90;75.76;96187.89;108834;1252;96349;-74
2023/04/25 07:03:58;;;;;;;5.90;4.80;;;;;;;8.90;75.65;96186.70;108389;1254;96525;-72
2023/04/25 07:06:25;;;;;;;6.80;5.90;;;;;;;8.86;75.56;96185.17;108856;1252;95596;-75
2023/04/25 07:08:52;;;;;;;8.60;6.10;;;;;;;8.85;75.65;96183.91;108822;1254;95605;-73
2023/04/25 07:11:19;;;;;;;6.90;5.90;;;;;;;8.88;75.66;96185.06;108803;1254;96175;-73
2023/04/25 07:13:46;;;;;;;10.40;7.60;;;;;;;8.89;75.53;96185.22;108519;1254;95757;-73
2023/04/25 07:16:13;;;;;;;9.90;6.80;;;;;;;8.89;75.43;96185.11;108829;1254;103457;-73
2023/04/25 07:18:39;;;;;;;6.20;5.60;;;;;;;8.85;75.27;96184.45;108460;1254;96490;-73
2023/04/25 07:21:06;;;;;;;8.90;6.30;;;;;;;8.78;75.26;96187.55;108786;1253;95899;-72
2023/04/25 07:23:33;;;;;;;9.80;6.40;;;;;;;8.80;75.51;96188.05;108774;1254;95534;-73
2023/04/25 07:25:59;;;;;;;7.10;6.40;;;;;;;8.84;75.57;96189.55;108826;1254;95658;-73
2023/04/25 07:28:26;;;;;;;10.20;8.10;;;;;;;8.86;75.46;96185.30;108450;1254;100028;-73
2023/04/25 07:30:53;;;;;;;10.60;7.30;;;;;;;8.91;75.28;96184.95;108767;1253;96088;-73
2023/04/25 07:33:20;;;;;;;10.70;6.60;;;;;;;8.97;75.28;96187.83;108751;1252;95640;-73
2023/04/25 07:35:47;;;;;;;5.80;5.10;;;;;;;9.01;75.16;96182.51;108456;1252;95634;-74
2023/04/25 07:38:14;;;;;;;4.30;3.90;;;;;;;9.05;74.99;96185.02;108797;1253;95691;-73
2023/04/25 07:40:41;;;;;;;4.40;3.60;;;;;;;9.03;74.53;96185.30;108799;1252;95985;-74
2023/04/25 07:43:08;;;;;;;6.70;4.00;;;;;;;9.01;74.45;96185.48;108717;1254;95570;-75
2023/04/25 07:45:34;;;;;;;7.50;4.70;;;;;;;9.06;74.65;96183.11;108744;1254;95731;-73
2023/04/25 07:48:01;;;;;;;6.00;5.00;;;;;;;9.11;74.86;96184.25;108783;1254;95946;-73
2023/04/25 07:50:28;;;;;;;7.50;4.50;;;;;;;9.12;74.99;96185.40;108811;1254;95832;-72
2023/04/25 07:52:55;;;;;;;5.10;4.00;;;;;;;9.16;74.78;96190.94;108797;1254;95663;-73
2023/04/25 07:55:22;;;;;;;6.30;5.10;;;;;;;9.19;74.62;96188.77;108881;1253;95623;-73
2023/04/25 07:57:49;;;;;;;6.00;5.00;;;;;;;9.22;74.31;96188.21;108465;1254;102697;-73
2023/04/25 08:00:16;;;;;;;7.60;5.60;;;;;;;9.24;74.33;96185.42;108853;1254;95837;-74
2023/04/25 08:02:43;;;;;;;8.20;5.00;;;;;;;9.25;74.43;96184.94;108785;1253;95610;-76
2023/04/25 08:05:11;;;;;;;7.50;4.60;;;;;;;9.27;74.37;96181.97;108825;1252;96060;-73
2023/04/25 08:07:39;;;;;;;20.10;10.80;;;;;;;9.30;74.13;96181.63;108813;1253;95695;-73
2023/04/25 08:10:07;;;;;;;9.40;6.20;;;;;;;9.29;74.03;96183.57;108790;1254;95630;-72
2023/04/25 08:12:33;;;;;;;6.60;4.20;;;;;;;9.30;74.14;96186.54;108403;1254;101334;-73
2023/04/25 08:15:00;;;;;;;6.90;4.70;;;;;;;9.32;74.29;96185.19;108780;1252;95875;-73
2023/04/25 08:17:27;;;;;;;12.70;5.60;;;;;;;9.30;74.08;96187.29;108801;1252;95868;-73
2023/04/25 08:19:55;;;;;;;6.90;4.80;;;;;;;9.30;74.03;96187.41;108628;1254;95662;-75
2023/04/25 08:22:21;;;;;;;6.10;4.40;;;;;;;9.35;74.15;96187.30;108825;1254;95946;-73
2023/04/25 08:24:48;;;;;;;6.70;5.80;;;;;;;9.37;73.80;96186.19;108762;1253;95711;-73
2023/04/25 08:27:15;;;;;;;12.60;7.60;;;;;;;9.37;73.88;96187.96;108818;1254;95592;-74
2023/04/25 08:29:42;;;;;;;10.10;6.50;;;;;;;9.35;74.02;96189.04;108799;1254;96041;-75
2023/04/25 08:32:12;;;;;;;8.30;6.00;;;;;;;9.30;74.02;96188.38;108760;1254;103390;-74
2023/04/25 08:34:41;;;;;;;10.10;6.30;;;;;;;9.29;74.02;96190.80;108699;1253;96177;-73
2023/04/25 08:37:10;;;;;;;7.50;6.60;;;;;;;9.23;73.97;96190.36;108658;1254;99996;-73
2023/04/25 08:39:37;;;;;;;7.30;5.50;;;;;;;9.18;73.97;96192.23;108731;1253;95881;-74
2023/04/25 08:42:07;;;;;;;9.90;6.00;;;;;;;9.18;73.85;96193.74;108808;1251;96441;-73
2023/04/25 08:44:35;;;;;;;9.30;6.40;;;;;;;9.21;73.65;96188.43;108804;1252;103557;-73
2023/04/25 08:47:05;;;;;;;8.90;6.30;;;;;;;9.25;73.57;96190.36;108415;1254;101293;-75
2023/04/25 08:49:35;;;;;;;6.50;5.70;;;;;;;9.27;73.60;96192.29;108744;1253;100010;-74
2023/04/25 08:52:05;;;;;;;7.40;6.00;;;;;;;9.28;73.46;96192.60;108381;1253;96033;-73
2023/04/25 08:54:33;;;;;;;7.60;6.10;;;;;;;9.33;73.65;96193.04;108812;1254;96475;-74
2023/04/25 08:57:04;;;;;;;11.10;6.50;;;;;;;9.38;73.65;96194.41;108849;1253;103529;-73
2023/04/25 08:59:32;;;;;;;10.10;6.30;;;;;;;9.37;73.58;96203.14;108368;1254;101654;-75
2023/04/25 09:01:59;;;;;;;7.50;6.60;;;;;;;9.23;73.56;96202.11;108782;1253;100061;-74
2023/04/25 09:04:26;;;;;;;8.30;5.70;;;;;;;9.11;73.46;96203.73;108764;1253;95628;-73
2023/04/25 09:06:52;;;;;;;7.60;5.70;;;;;;;8.99;73.55;96207.96;108797;1254;95705;-73
2023/04/25 09:09:19;;;;;;;8.70;6.50;;;;;;;8.81;73.13;96211.27;108751;1253;95888;-73
2023/04/25 09:11:46;;;;;;;8.40;6.40;;;;;;;8.53;72.94;96218.30;108790;1253;96680;-75
2023/04/25 09:14:21;;;;;;;8.80;6.60;;;;;;;8.30;73.29;96213.61;108401;1253;95663;-73
2023/04/25 09:16:57;;;;;;;8.10;6.90;;;;;;;8.21;73.79;96217.70;108836;1252;96341;-74
2023/04/25 09:19:29;;;;;;;10.00;7.20;;;;;;;8.22;74.18;96219.35;108786;1253;103616;-75
2023/04/25 09:21:58;;;;;;;7.70;6.90;;;;;;;8.26;74.35;96220.31;108607;1254;101235;-73
2023/04/25 09:24:37;;;;;;;7.30;6.60;;;;;;;8.32;74.24;96221.48;108785;1253;98578;-73
2023/04/25 09:27:09;;;;;;;10.30;7.60;;;;;;;8.38;74.31;96223.59;108577;1253;222109;-72
2023/04/25 09:29:38;;;;;;;9.80;7.70;;;;;;;8.45;74.33;96223.00;108754;1253;95632;-75
2023/04/25 09:32:24;;;;;;;10.80;8.60;;;;;;;8.53;74.19;96222.86;108834;1254;103240;-73
2023/04/25 09:34:53;;;;;;;10.00;9.00;;;;;;;8.60;74.33;96219.20;108760;1254;101382;-73
2023/04/25 09:37:24;;;;;;;11.90;9.20;;;;;;;8.69;74.32;96214.33;108733;1253;100003;-73
2023/04/25 09:39:57;;;;;;;12.20;9.40;;;;;;;8.79;74.40;96213.57;108673;1253;95804;-74
2023/04/25 09:42:25;;;;;;;10.60;9.20;;;;;;;8.85;74.48;96217.19;108687;1253;96042;-73
2023/04/25 09:44:54;;;;;;;11.60;8.60;;;;;;;8.91;74.52;96216.04;108244;1257;103606;-73
2023/04/25 09:47:24;;;;;;;10.60;8.30;;;;;;;8.93;74.51;96212.39;108318;1257;99276;-74
2023/04/25 09:49:52;;;;;;;12.70;9.00;;;;;;;8.96;74.39;96210.69;108209;1257;99922;-75
2023/04/25 09:52:25;;;;;;;9.20;7.70;;;;;;;9.04;74.34;96210.13;108263;1257;96274;-72
2023/04/25 09:54:52;;;;;;;12.10;8.40;;;;;;;9.14;74.27;96212.21;108189;1257;95709;-73
2023/04/25 09:57:21;;;;;;;8.50;7.70;;;;;;;9.22;74.16;96210.00;108301;1257;95708;-73
2023/04/25 09:59:51;;;;;;;9.70;7.00;;;;;;;9.30;73.79;96212.44;108284;1257;101086;-71
2023/04/25 10:02:25;;;;;;;9.20;7.40;;;;;;;9.33;73.55;96210.15;108195;1257;100006;-73
2023/04/25 10:04:55;;;;;;;9.60;6.70;;;;;;;9.41;73.54;96206.14;108225;1257;95660;-73
2023/04/25 10:07:29;;;;;;;9.70;7.20;;;;;;;9.48;73.24;96211.65;108230;1257;97084;-74
2023/04/25 10:10:03;;;;;;;8.20;6.30;;;;;;;9.51;72.93;96205.63;108260;1257;103488;-73
2023/04/25 10:12:33;;;;;;;9.40;6.50;;;;;;;9.49;72.64;96204.17;108180;1257;101295;-73
2023/04/25 10:15:01;;;;;;;6.90;5.60;;;;;;;9.47;72.74;96205.27;108257;1253;99855;-72
2023/04/25 10:17:29;;;;;;;7.20;5.90;;;;;;;9.48;72.60;96205.84;108685;1252;95577;-72
2023/04/25 10:19:57;;;;;;;9.60;4.80;;;;;;;9.49;72.38;96203.05;108714;1253;96132;-75
2023/04/25 10:22:34;;;;;;;7.50;5.50;;;;;;;9.53;72.20;96203.69;108797;1253;103891;-72
2023/04/25 10:25:04;;;;;;;5.80;5.10;;;;;;;9.62;72.23;96197.80;108609;1253;101278;-73
2023/04/25 10:27:32;;;;;;;7.00;4.70;;;;;;;9.76;72.07;96200.76;108680;1252;100236;-74
2023/04/25 10:30:14;;;;;;;6.60;4.20;;;;;;;9.88;71.88;96199.15;108310;1254;95948;-76
2023/04/25 10:32:47;;;;;;;10.40;4.90;;;;;;;10.04;71.63;96199.13;108427;1253;95954;-74
2023/04/25 10:35:24;;;;;;;4.80;4.30;;;;;;;10.19;71.21;96197.58;108258;1254;102084;-74
2023/04/25 10:37:58;;;;;;;4.50;3.80;;;;;;;10.29;70.53;96195.80;108693;1252;100409;-75
2023/04/25 10:40:25;;;;;;;4.20;3.80;;;;;;;10.40;70.37;96195.29;108753;1252;99591;-74
2023/04/25 10:42:55;;;;;;;7.20;4.10;;;;;;;10.52;69.98;96192.25;108532;1252;95686;-72
2023/04/25 10:45:22;;;;;;;6.80;4.10;;;;;;;10.58;69.63;96192.14;108602;1253;96139;-74
2023/04/25 10:47:49;;;;;;;4.80;4.00;;;;;;;10.62;69.63;96191.42;108685;1253;95636;-74
2023/04/25 10:50:16;;;;;;;4.40;4.00;;;;;;;10.66;69.15;96189.33;108335;1253;96029;-73
2023/04/25 10:52:44;;;;;;;4.70;3.80;;;;;;;10.72;68.50;96186.59;108615;1253;95691;-74
2023/04/25 10:55:12;;;;;;;6.70;4.50;;;;;;;10.77;68.19;96188.34;108715;1253;95539;-72
2023/04/25 10:57:42;;;;;;;6.00;4.20;;;;;;;10.78;67.91;96186.86;108329;1256;96282;-74
2023/04/25 11:00:21;;;;;;;4.20;3.80;;;;;;;10.74;67.53;96188.90;108727;1253;104244;-72
2023/04/25 11:02:59;;;;;;;6.30;3.90;;;;;;;10.54;67.03;96193.70;108709;1253;100415;-74
2023/04/25 11:05:36;;;;;;;4.70;3.70;;;;;;;10.33;67.27;96190.42;108691;1253;99985;-73
2023/04/25 11:08:12;;;;;;;6.30;4.60;;;;;;;10.28;67.37;96190.36;108720;1252;95735;-72
2023/04/25 11:10:40;;;;;;;6.10;4.40;;;;;;;10.30;67.26;96188.40;108750;1252;96030;-74
2023/04/25 11:13:09;;;;;;;5.40;4.10;;;;;;;10.34;67.46;96187.95;108609;1253;103445;-71
2023/04/25 11:15:37;;;;;;;5.60;4.50;;;;;;;10.35;67.46;96188.84;108167;1260;100373;-75
2023/04/25 11:18:04;;;;;;;5.50;4.80;;;;;;;10.29;67.46;96184.69;108668;1253;99992;-73
2023/04/25 11:20:32;;;;;;;7.30;5.20;;;;;;;10.25;67.54;96185.53;108477;1253;95593;-75
2023/04/25 11:23:00;;;;;;;6.30;4.90;;;;;;;10.32;68.01;96188.52;108697;1253;96081;-73
2023/04/25 11:25:27;;;;;;;4.70;4.20;;;;;;;10.40;67.87;96190.13;108736;1253;103581;-74
2023/04/25 11:28:00;;;;;;;6.30;5.10;;;;;;;10.40;68.06;96194.61;108347;1253;96869;-74
2023/04/25 11:30:30;;;;;;;5.90;5.30;;;;;;;10.28;68.61;96193.30;108714;1253;100116;-74